YTYH weather

Tyagarah Airport
New South Wales, Australia

Public forecast

Using degrees Celsius for public forecast. Weather courtesy of forecast.io.

METAR (pilot weather report)

Closest report is Ballina Byron Gateway Airport, 14.4 nm (26.6 km) S. Retrieved 2019/02/22 09:00 UTC (45 minutes ago):

YBNA 220900Z AUTO 19020G36KT 9000 // SCT030 BKN038 BKN052 21/21 Q1012

TAF (pilot weather forecast)

Forecast is more than 12 hours old.

Closest forecast is Gold Coast Airport, 25.9 nm (48.1 km) N. Retrieved 2019/02/19 00:00 UTC (3 days ago):

TAF YBCG 192316Z 2000/2024 16012KT 9999 FEW025 BKN035 FM200100 12014KT 9999 FEW030 FM200900 15012KT 9999 SCT020 FM201200 18008KT 9999 -SHRA BKN018 BKN030 FM202200 16018KT 9999 -SHRA SCT020 SCT040 TEMPO 2018/2022 5000 -SHRA BKN010